Time;durP1;ratioP1;P1;durP2;ratioP2;P2;SDS_P1;SDS_P2;PMS_P1;PMS_P2;Temp;Humidity;BMP_temperature;BMP_pressure;BME280_temperature;BME280_humidity;BME280_pressure;Samples;Min_cycle;Max_cycle;Signal;HPM_P1;HPM_P2
2021/10/27 00:01:54;;;;;;;8.07;5.00;;;;;;;-138.14;100.00;63448.66;4993528;28;20223;-70
2021/10/27 00:04:19;;;;;;;7.60;5.37;;;;;;;-138.14;100.00;63448.66;4993339;28;20244;-71
2021/10/27 00:06:45;;;;;;;7.70;4.63;;;;;;;-138.14;100.00;63448.66;5011478;28;20221;-70
2021/10/27 00:09:11;;;;;;;9.70;5.00;;;;;;;-138.14;100.00;63448.66;5011291;28;20323;-69
2021/10/27 00:11:40;;;;;;;9.10;4.80;;;;;;;-138.14;100.00;63448.66;4985447;28;20217;-71
2021/10/27 00:14:06;;;;;;;7.07;5.33;;;;;;;-138.14;100.00;63448.66;5011198;28;20945;-70
2021/10/27 00:16:32;;;;;;;8.33;5.00;;;;;;;-138.14;100.00;63448.66;5009300;28;20221;-71
2021/10/27 00:18:58;;;;;;;7.90;5.00;;;;;;;-138.14;100.00;63448.66;4977819;28;20569;-71
2021/10/27 00:21:23;;;;;;;7.87;4.47;;;;;;;-138.14;100.00;63448.66;5009292;28;20228;-70
2021/10/27 00:23:51;;;;;;;8.33;4.60;;;;;;;-138.14;100.00;63448.66;5010311;28;20189;-70
2021/10/27 00:26:18;;;;;;;9.20;5.63;;;;;;;-138.14;100.00;63448.66;5009064;28;20274;-71
2021/10/27 00:28:44;;;;;;;7.80;4.33;;;;;;;-138.14;100.00;63448.66;5010197;28;20185;-72
2021/10/27 00:31:10;;;;;;;10.77;4.37;;;;;;;-138.14;100.00;63448.66;5010911;28;20246;-71
2021/10/27 00:33:37;;;;;;;9.13;4.37;;;;;;;-138.14;100.00;63448.66;5011343;28;20181;-70
2021/10/27 00:36:07;;;;;;;8.87;4.87;;;;;;;-138.14;100.00;63448.66;5009596;28;20228;-70
2021/10/27 00:38:35;;;;;;;8.43;5.17;;;;;;;-138.14;100.00;63448.66;5011092;28;20678;-71
2021/10/27 00:41:01;;;;;;;6.17;4.60;;;;;;;-138.14;100.00;63448.66;4981451;28;20225;-71
2021/10/27 00:43:28;;;;;;;9.07;4.83;;;;;;;-138.14;100.00;63448.66;4970828;28;20193;-70
2021/10/27 00:45:54;;;;;;;9.07;4.80;;;;;;;-138.14;100.00;63448.66;5009009;28;20239;-71
2021/10/27 00:48:22;;;;;;;8.23;4.63;;;;;;;-138.14;100.00;63448.66;4993622;28;20177;-71
2021/10/27 00:50:47;;;;;;;9.40;5.23;;;;;;;-138.14;100.00;63448.66;5009184;28;20223;-71
2021/10/27 00:53:17;;;;;;;6.87;4.97;;;;;;;-138.14;100.00;63448.66;4993227;28;20558;-69
2021/10/27 00:55:43;;;;;;;10.80;4.90;;;;;;;-138.14;100.00;63448.66;4992593;28;20248;-69
2021/10/27 00:58:11;;;;;;;7.43;4.77;;;;;;;-138.14;100.00;63448.66;4961364;28;20181;-71
2021/10/27 01:00:37;;;;;;;11.93;4.97;;;;;;;-138.14;100.00;63448.66;4976734;28;20232;-70
2021/10/27 01:03:02;;;;;;;8.27;4.73;;;;;;;-138.14;100.00;63448.66;4961176;28;20226;-71
2021/10/27 01:05:29;;;;;;;7.43;4.80;;;;;;;-138.14;100.00;63448.66;4976359;28;20243;-71
2021/10/27 01:07:57;;;;;;;9.43;5.60;;;;;;;-138.14;100.00;63448.66;4993904;28;20189;-70
2021/10/27 01:10:23;;;;;;;6.77;4.97;;;;;;;-138.14;100.00;63448.66;4998095;28;20197;-71
2021/10/27 01:12:48;;;;;;;8.53;5.23;;;;;;;-138.14;100.00;63448.66;5014531;28;20311;-71
2021/10/27 01:15:14;;;;;;;6.80;5.10;;;;;;;-138.14;100.00;63448.66;5012475;28;20181;-70
2021/10/27 01:17:39;;;;;;;10.13;5.50;;;;;;;-138.14;100.00;63448.66;4996621;28;20315;-71
2021/10/27 01:20:08;;;;;;;6.80;5.30;;;;;;;-138.14;100.00;63448.66;5012731;28;20300;-71
2021/10/27 01:22:35;;;;;;;9.07;5.80;;;;;;;-138.14;100.00;63448.66;4980841;28;20181;-70
2021/10/27 01:25:01;;;;;;;10.97;5.97;;;;;;;-138.14;100.00;63448.66;5012573;28;20634;-71
2021/10/27 01:27:31;;;;;;;9.43;6.10;;;;;;;-138.14;100.00;63448.66;5014036;28;20231;-72
2021/10/27 01:29:56;;;;;;;9.83;6.00;;;;;;;-138.14;100.00;63448.66;5014270;28;20606;-70
2021/10/27 01:32:38;;;;;;;9.90;6.37;;;;;;;-138.14;100.00;63448.66;5012576;28;20233;-71
2021/10/27 01:35:06;;;;;;;8.67;6.83;;;;;;;-138.14;100.00;63448.66;5012181;28;20200;-71
2021/10/27 01:37:37;;;;;;;7.90;6.70;;;;;;;-138.14;100.00;63448.66;4987468;28;20203;-71
2021/10/27 01:40:04;;;;;;;12.97;7.00;;;;;;;-138.14;100.00;63448.66;4996869;28;20359;-69
2021/10/27 01:42:32;;;;;;;10.67;7.40;;;;;;;-138.14;100.00;63448.66;5004132;28;20235;-70
2021/10/27 01:44:58;;;;;;;12.67;7.53;;;;;;;-138.14;100.00;63448.66;4995983;28;20196;-71
2021/10/27 01:47:26;;;;;;;10.90;7.50;;;;;;;-138.14;100.00;63448.66;4995927;28;20228;-70
2021/10/27 01:49:54;;;;;;;10.73;7.60;;;;;;;-138.14;100.00;63448.66;4980131;28;20181;-71
2021/10/27 01:52:21;;;;;;;11.20;8.13;;;;;;;-138.14;100.00;63448.66;4995660;28;20228;-69
2021/10/27 01:54:47;;;;;;;13.77;8.27;;;;;;;-138.14;100.00;63448.66;5012258;28;20177;-70
2021/10/27 01:57:15;;;;;;;11.73;8.20;;;;;;;-138.14;100.00;63448.66;5011728;28;20229;-71
2021/10/27 01:59:42;;;;;;;10.10;8.80;;;;;;;-138.14;100.00;63448.66;4996157;28;20217;-71
2021/10/27 02:02:13;;;;;;;15.50;9.50;;;;;;;-138.14;100.00;63448.66;4996331;28;20225;-71
2021/10/27 02:04:38;;;;;;;13.93;9.47;;;;;;;-138.14;100.00;63448.66;5013144;28;20196;-70
2021/10/27 02:07:06;;;;;;;11.07;8.83;;;;;;;-138.14;100.00;63448.66;4989565;28;20216;-70
2021/10/27 02:09:37;;;;;;;12.10;9.57;;;;;;;-138.14;100.00;63448.66;4995845;28;20189;-71
2021/10/27 02:12:04;;;;;;;14.23;10.23;;;;;;;-138.14;100.00;63448.66;4987931;28;20224;-72
2021/10/27 02:14:30;;;;;;;12.53;9.90;;;;;;;-138.14;100.00;63448.66;4995667;28;20181;-71
2021/10/27 02:16:55;;;;;;;13.77;10.10;;;;;;;-138.14;100.00;63448.66;5011278;28;20740;-71
2021/10/27 02:19:21;;;;;;;14.60;10.30;;;;;;;-138.14;100.00;63448.66;5011813;28;20205;-70
2021/10/27 02:21:46;;;;;;;12.00;9.67;;;;;;;-138.14;100.00;63448.66;5011465;28;20646;-70
2021/10/27 02:24:12;;;;;;;15.73;10.23;;;;;;;-138.14;100.00;63448.66;5013148;28;20232;-69
2021/10/27 02:26:40;;;;;;;15.30;10.73;;;;;;;-138.14;100.00;63448.66;5011141;28;20713;-69
2021/10/27 02:29:08;;;;;;;14.63;10.83;;;;;;;-138.14;100.00;63448.66;4979730;28;20208;-70
2021/10/27 02:31:33;;;;;;;14.47;10.57;;;;;;;-138.14;100.00;63448.66;5012521;28;20229;-71
2021/10/27 02:33:59;;;;;;;17.57;11.10;;;;;;;-138.14;100.00;63448.66;5013075;28;20292;-70
2021/10/27 02:36:24;;;;;;;15.30;11.10;;;;;;;-138.14;100.00;63448.66;5010186;28;20232;-70
2021/10/27 02:38:50;;;;;;;17.33;12.07;;;;;;;-138.14;100.00;63448.66;4995244;28;20208;-71
2021/10/27 02:41:16;;;;;;;14.83;11.67;;;;;;;-138.14;100.00;63448.66;5001748;28;20231;-70
2021/10/27 02:43:43;;;;;;;17.50;12.00;;;;;;;-138.14;100.00;63448.66;5005936;28;20243;-70
2021/10/27 02:46:12;;;;;;;13.77;12.33;;;;;;;-138.14;100.00;63448.66;5010401;28;20229;-70
2021/10/27 02:48:40;;;;;;;16.07;12.30;;;;;;;-138.14;100.00;63448.66;4994619;28;20702;-70
2021/10/27 02:51:06;;;;;;;16.77;12.23;;;;;;;-138.14;100.00;63448.66;4961970;28;20228;-71
2021/10/27 02:53:33;;;;;;;16.57;12.13;;;;;;;-138.14;100.00;63448.66;4979716;28;20197;-69
2021/10/27 02:56:03;;;;;;;14.87;12.30;;;;;;;-138.14;100.00;63448.66;4994670;28;20228;-69
2021/10/27 02:58:29;;;;;;;17.97;12.23;;;;;;;-138.14;100.00;63448.66;4978876;28;20185;-70
2021/10/27 03:00:54;;;;;;;15.20;12.83;;;;;;;-138.14;100.00;63448.66;4978325;28;20251;-71
2021/10/27 03:03:20;;;;;;;15.67;12.60;;;;;;;-138.14;100.00;63448.66;4995207;28;20185;-70
2021/10/27 03:05:48;;;;;;;14.73;12.83;;;;;;;-138.14;100.00;63448.66;4977703;28;20271;-70
2021/10/27 03:08:14;;;;;;;17.17;12.63;;;;;;;-138.14;100.00;63448.66;4995417;28;20677;-71
2021/10/27 03:10:41;;;;;;;17.43;13.53;;;;;;;-138.14;100.00;63448.66;5011639;28;20220;-70
2021/10/27 03:13:11;;;;;;;18.60;13.80;;;;;;;-138.14;100.00;63448.66;5002663;28;20177;-70
2021/10/27 03:15:37;;;;;;;15.00;13.40;;;;;;;-138.14;100.00;63448.66;5011268;28;20300;-71
2021/10/27 03:18:02;;;;;;;16.93;12.77;;;;;;;-138.14;100.00;63448.66;4999669;28;20189;-70
2021/10/27 03:20:33;;;;;;;15.90;13.07;;;;;;;-138.14;100.00;63448.66;5011654;28;21001;-69
2021/10/27 03:23:00;;;;;;;18.23;13.27;;;;;;;-138.14;100.00;63448.66;5012230;28;20646;-70
2021/10/27 03:25:28;;;;;;;16.67;13.80;;;;;;;-138.14;100.00;63448.66;4977586;28;20228;-71
2021/10/27 03:27:56;;;;;;;19.33;14.37;;;;;;;-138.14;100.00;63448.66;4978665;28;20193;-70
2021/10/27 03:30:22;;;;;;;17.67;13.53;;;;;;;-138.14;100.00;63448.66;5011601;28;20187;-71
2021/10/27 03:32:47;;;;;;;19.50;14.13;;;;;;;-138.14;100.00;63448.66;5011240;28;20188;-70
2021/10/27 03:35:15;;;;;;;18.87;14.37;;;;;;;-138.14;100.00;63448.66;5011068;28;20196;-70
2021/10/27 03:37:41;;;;;;;18.73;14.20;;;;;;;-138.14;100.00;63448.66;4994936;28;20201;-70
2021/10/27 03:40:07;;;;;;;20.47;14.47;;;;;;;-138.14;100.00;63448.66;4977750;28;20705;-71
2021/10/27 03:42:37;;;;;;;16.73;14.27;;;;;;;-138.14;100.00;63448.66;4986370;28;20192;-70
2021/10/27 03:45:03;;;;;;;18.60;13.47;;;;;;;-138.14;100.00;63448.66;4993359;28;20201;-70
2021/10/27 03:47:29;;;;;;;18.30;13.73;;;;;;;-138.14;100.00;63448.66;5010652;28;20610;-71
2021/10/27 03:49:55;;;;;;;17.53;14.13;;;;;;;-138.14;100.00;63448.66;5010552;28;20173;-70
2021/10/27 03:52:22;;;;;;;17.33;14.40;;;;;;;-138.14;100.00;63448.66;5010092;28;20224;-70
2021/10/27 03:54:51;;;;;;;17.47;14.27;;;;;;;-138.14;100.00;63448.66;5011217;28;20564;-70
2021/10/27 03:57:17;;;;;;;18.57;15.17;;;;;;;-138.14;100.00;63448.66;5009863;28;20883;-71
2021/10/27 03:59:47;;;;;;;19.53;15.43;;;;;;;-138.14;100.00;63448.66;5010362;28;20220;-70
2021/10/27 04:02:13;;;;;;;18.80;15.60;;;;;;;-138.14;100.00;63448.66;5010047;28;20256;-69
2021/10/27 04:04:38;;;;;;;20.87;16.10;;;;;;;-138.14;100.00;63448.66;5010888;28;20216;-70
2021/10/27 04:07:06;;;;;;;19.47;15.57;;;;;;;-138.14;100.00;63448.66;5004152;28;20220;-70
2021/10/27 04:09:34;;;;;;;18.63;15.60;;;;;;;-138.14;100.00;63448.66;4993969;28;20209;-70
2021/10/27 04:12:00;;;;;;;19.63;15.07;;;;;;;-138.14;100.00;63448.66;5001438;28;20648;-70
2021/10/27 04:14:25;;;;;;;19.33;16.50;;;;;;;-138.14;100.00;63448.66;5009930;28;20193;-70
2021/10/27 04:16:53;;;;;;;17.70;15.43;;;;;;;-138.14;100.00;63448.66;4993322;28;20225;-70
2021/10/27 04:19:21;;;;;;;20.37;16.40;;;;;;;-138.14;100.00;63448.66;5010345;28;20205;-71
2021/10/27 04:21:47;;;;;;;18.33;15.73;;;;;;;-138.14;100.00;63448.66;4992964;28;20291;-70
2021/10/27 04:24:15;;;;;;;18.63;16.10;;;;;;;-138.14;100.00;63448.66;5009952;28;20201;-70
2021/10/27 04:26:43;;;;;;;18.30;15.70;;;;;;;-138.14;100.00;63448.66;5009526;28;20627;-71
2021/10/27 04:29:11;;;;;;;18.57;15.70;;;;;;;-138.14;100.00;63448.66;5011826;28;20177;-70
2021/10/27 04:31:38;;;;;;;20.13;15.60;;;;;;;-138.14;100.00;63448.66;5011583;28;20224;-69
2021/10/27 04:34:04;;;;;;;17.57;15.67;;;;;;;-138.14;100.00;63448.66;5011692;28;20185;-70
2021/10/27 04:36:30;;;;;;;17.87;14.70;;;;;;;-138.14;100.00;63448.66;5011145;28;20227;-69
2021/10/27 04:38:58;;;;;;;18.03;14.73;;;;;;;-138.14;100.00;63448.66;4977209;28;20209;-69
2021/10/27 04:41:27;;;;;;;17.73;15.00;;;;;;;-138.14;100.00;63448.66;4964396;28;20217;-70
2021/10/27 04:43:56;;;;;;;17.40;15.00;;;;;;;-138.14;100.00;63448.66;5020175;28;20185;-69
2021/10/27 04:46:21;;;;;;;19.00;15.93;;;;;;;-138.14;100.00;63448.66;5004467;28;20232;-68
2021/10/27 04:48:47;;;;;;;21.97;15.67;;;;;;;-138.14;100.00;63448.66;4995407;28;20193;-71
2021/10/27 04:51:12;;;;;;;18.27;14.70;;;;;;;-138.14;100.00;63448.66;5027445;28;20232;-69
2021/10/27 04:53:40;;;;;;;18.80;15.00;;;;;;;-138.14;100.00;63448.66;4990999;28;20184;-69
2021/10/27 04:56:06;;;;;;;19.33;15.97;;;;;;;-138.14;100.00;63448.66;5016645;28;20239;-71
2021/10/27 04:58:36;;;;;;;18.10;16.13;;;;;;;-138.14;100.00;63448.66;5015162;28;20200;-71
2021/10/27 05:01:04;;;;;;;17.67;15.67;;;;;;;-138.14;100.00;63448.66;4981085;28;20231;-69
2021/10/27 05:03:30;;;;;;;21.57;17.27;;;;;;;-138.14;100.00;63448.66;5016460;28;20193;-71
2021/10/27 05:05:56;;;;;;;23.80;18.00;;;;;;;-138.14;100.00;63448.66;4990024;28;20228;-71
2021/10/27 05:08:23;;;;;;;21.77;17.73;;;;;;;-138.14;100.00;63448.66;5000215;28;20181;-71
2021/10/27 05:10:50;;;;;;;22.33;18.83;;;;;;;-138.14;100.00;63448.66;4966065;28;20225;-70
2021/10/27 05:13:15;;;;;;;23.20;18.83;;;;;;;-138.14;100.00;63448.66;5008165;28;20215;-71
2021/10/27 05:15:41;;;;;;;25.20;18.23;;;;;;;-138.14;100.00;63448.66;5020577;28;20247;-70
2021/10/27 05:18:07;;;;;;;21.10;18.83;;;;;;;-138.14;100.00;63448.66;4992102;28;20284;-72
2021/10/27 05:20:32;;;;;;;23.73;19.53;;;;;;;-138.14;100.00;63448.66;5036368;28;20305;-71
2021/10/27 05:23:01;;;;;;;27.70;20.17;;;;;;;-138.14;100.00;63448.66;5007983;28;20189;-71
2021/10/27 05:25:26;;;;;;;23.43;19.57;;;;;;;-138.14;100.00;63448.66;5019492;28;20635;-71
2021/10/27 05:27:54;;;;;;;27.20;20.97;;;;;;;-138.14;100.00;63448.66;5037440;28;20185;-71
2021/10/27 05:30:20;;;;;;;25.47;20.37;;;;;;;-138.14;100.00;63448.66;5018834;28;20184;-71
2021/10/27 05:32:45;;;;;;;26.97;20.40;;;;;;;-138.14;100.00;63448.66;5035836;28;20784;-70
2021/10/27 05:35:15;;;;;;;26.67;21.13;;;;;;;-138.14;100.00;63448.66;5017436;28;20732;-71
2021/10/27 05:37:41;;;;;;;29.07;21.53;;;;;;;-138.14;100.00;63448.66;5019460;28;20209;-72
2021/10/27 05:40:10;;;;;;;31.33;22.40;;;;;;;-138.14;100.00;63448.66;4966987;28;20209;-71
2021/10/27 05:42:35;;;;;;;32.80;22.90;;;;;;;-138.14;100.00;63448.66;5008703;28;20188;-71
2021/10/27 05:45:04;;;;;;;29.53;23.10;;;;;;;-138.14;100.00;63448.66;5019997;28;20583;-71
2021/10/27 05:47:32;;;;;;;26.47;22.47;;;;;;;-138.14;100.00;63448.66;5025221;28;20216;-71
2021/10/27 05:50:21;;;;;;;28.23;21.97;;;;;;;-138.14;100.00;63448.66;5013859;28;20201;-71
2021/10/27 05:55:36;;;;;;;29.30;22.50;;;;;;;-138.14;100.00;63448.66;4975816;28;20279;-72
2021/10/27 05:58:03;;;;;;;28.10;22.90;;;;;;;-138.14;100.00;63448.66;4994385;28;20177;-72
2021/10/27 06:00:30;;;;;;;29.87;23.43;;;;;;;-138.14;100.00;63448.66;4960066;28;20291;-70
2021/10/27 06:02:55;;;;;;;32.90;23.03;;;;;;;-138.14;100.00;63448.66;4976602;28;20235;-72
2021/10/27 06:05:21;;;;;;;31.07;23.87;;;;;;;-138.14;100.00;63448.66;4991828;28;20185;-72
2021/10/27 06:08:07;;;;;;;32.17;24.10;;;;;;;-138.14;100.00;63448.66;4992119;28;20216;-73
2021/10/27 06:10:34;;;;;;;33.67;23.97;;;;;;;-138.14;100.00;63448.66;4998404;28;20304;-70
2021/10/27 06:13:03;;;;;;;31.83;24.57;;;;;;;-138.14;100.00;63448.66;5004255;28;20235;-70
2021/10/27 06:15:30;;;;;;;30.97;23.80;;;;;;;-138.14;100.00;63448.66;4995416;28;20831;-71
2021/10/27 06:17:59;;;;;;;31.80;25.20;;;;;;;-138.14;100.00;63448.66;5013579;28;20169;-70
2021/10/27 06:20:24;;;;;;;31.57;24.07;;;;;;;-138.14;100.00;63448.66;4995387;28;20236;-73
2021/10/27 06:22:52;;;;;;;29.33;23.33;;;;;;;-138.14;100.00;63448.66;5013296;28;20228;-72
2021/10/27 06:25:20;;;;;;;36.07;25.07;;;;;;;-138.14;100.00;63448.66;5012664;28;20181;-70
2021/10/27 06:27:55;;;;;;;33.47;25.03;;;;;;;-138.14;100.00;63448.66;5012096;28;20197;-72
2021/10/27 06:30:29;;;;;;;37.43;26.90;;;;;;;-138.14;100.00;63448.66;5011096;28;20603;-70
2021/10/27 06:33:02;;;;;;;31.97;24.73;;;;;;;-138.14;100.00;63448.66;4996853;28;20192;-70
2021/10/27 06:35:32;;;;;;;34.97;25.50;;;;;;;-138.14;100.00;63448.66;5011092;28;20224;-71
2021/10/27 06:46:38;;;;;;;33.07;25.70;;;;;;;-138.14;100.00;63448.66;5009944;28;20227;-71
2021/10/27 06:49:04;;;;;;;34.23;25.63;;;;;;;-138.14;100.00;63448.66;5011959;28;20209;-71
2021/10/27 06:51:30;;;;;;;31.97;25.70;;;;;;;-138.14;100.00;63448.66;5011083;28;20308;-71
2021/10/27 06:53:56;;;;;;;33.67;25.27;;;;;;;-138.14;100.00;63448.66;4995151;28;20271;-72
2021/10/27 06:56:25;;;;;;;31.30;25.27;;;;;;;-138.14;100.00;63448.66;5011958;28;20228;-71
2021/10/27 07:02:09;;;;;;;32.60;24.60;;;;;;;-138.14;100.00;63448.66;4996366;28;20243;-70
2021/10/27 07:16:03;;;;;;;31.33;23.00;;;;;;;-138.14;100.00;63448.66;4996556;28;20256;-71
2021/10/27 07:18:29;;;;;;;29.73;24.40;;;;;;;-138.14;100.00;63448.66;4995392;28;20188;-71
2021/10/27 07:20:54;;;;;;;27.50;23.13;;;;;;;-138.14;100.00;63448.66;4977382;28;20228;-72
2021/10/27 07:23:20;;;;;;;30.30;23.93;;;;;;;-138.14;100.00;63448.66;4978371;28;20201;-71
2021/10/27 07:25:53;;;;;;;27.87;23.47;;;;;;;-138.14;100.00;63448.66;4977136;28;20216;-71
2021/10/27 07:28:20;;;;;;;29.23;23.60;;;;;;;-138.14;100.00;63448.66;5012282;28;20231;-72
2021/10/27 07:30:51;;;;;;;28.57;23.00;;;;;;;-138.14;100.00;63448.66;4994194;28;20307;-71
2021/10/27 07:33:20;;;;;;;30.20;23.00;;;;;;;-138.14;100.00;63448.66;5012212;28;20176;-71
2021/10/27 07:35:52;;;;;;;27.67;23.10;;;;;;;-138.14;100.00;63448.66;4994171;28;20233;-71
2021/10/27 07:41:26;;;;;;;27.90;22.53;;;;;;;-138.14;100.00;63448.66;4956629;28;20362;-72
2021/10/27 07:43:58;;;;;;;28.70;24.03;;;;;;;-138.14;100.00;63448.66;4997957;28;20204;-72
2021/10/27 07:46:26;;;;;;;27.87;24.73;;;;;;;-138.14;100.00;63448.66;4977301;28;20236;-71
2021/10/27 07:49:00;;;;;;;25.80;22.27;;;;;;;-138.14;100.00;63448.66;4994817;28;20264;-72
2021/10/27 07:51:31;;;;;;;25.70;21.87;;;;;;;-138.14;100.00;63448.66;4984599;28;20344;-71
2021/10/27 07:53:56;;;;;;;28.27;21.73;;;;;;;-138.14;100.00;63448.66;4978760;28;20219;-72
2021/10/27 07:56:24;;;;;;;24.33;21.57;;;;;;;-138.14;100.00;63448.66;5010316;28;20233;-72
2021/10/27 07:58:53;;;;;;;26.27;22.10;;;;;;;-138.14;100.00;63448.66;4978110;28;20204;-72
2021/10/27 08:01:19;;;;;;;24.20;21.50;;;;;;;-138.14;100.00;63448.66;4977765;28;20283;-72
2021/10/27 08:03:51;;;;;;;23.40;20.07;;;;;;;-138.14;100.00;63448.66;5011643;28;20188;-72
2021/10/27 08:06:17;;;;;;;24.03;19.70;;;;;;;-138.14;100.00;63448.66;4993689;28;20290;-72
2021/10/27 08:08:45;;;;;;;23.60;19.63;;;;;;;-138.14;100.00;63448.66;4961354;28;20189;-72
2021/10/27 08:11:11;;;;;;;23.73;19.77;;;;;;;-138.14;100.00;63448.66;4999999;28;20217;-72
2021/10/27 08:13:41;;;;;;;22.77;20.27;;;;;;;-138.14;100.00;63448.66;5004254;28;20212;-72
2021/10/27 08:16:07;;;;;;;21.27;18.83;;;;;;;-138.14;100.00;63448.66;4992497;28;20914;-72
2021/10/27 08:18:36;;;;;;;26.50;19.37;;;;;;;-138.14;100.00;63448.66;4996073;28;20618;-71
2021/10/27 08:21:01;;;;;;;26.70;20.37;;;;;;;-138.14;100.00;63448.66;5014858;28;20232;-73
2021/10/27 08:23:31;;;;;;;21.40;19.07;;;;;;;-138.14;100.00;63448.66;5015445;28;20181;-71
2021/10/27 08:25:59;;;;;;;21.43;19.13;;;;;;;-138.14;100.00;63448.66;4997616;28;20701;-72
2021/10/27 08:28:34;;;;;;;20.87;18.67;;;;;;;-138.14;100.00;63448.66;4998631;28;20188;-72
2021/10/27 08:31:12;;;;;;;21.23;19.00;;;;;;;-138.14;100.00;63448.66;5013559;28;20309;-71
2021/10/27 08:36:06;;;;;;;22.10;19.50;;;;;;;-138.14;100.00;63448.66;5013276;28;20229;-72
2021/10/27 08:38:32;;;;;;;21.77;19.43;;;;;;;-138.14;100.00;63448.66;4981697;28;20235;-71
2021/10/27 08:41:01;;;;;;;21.20;19.00;;;;;;;-138.14;100.00;63448.66;5001714;28;20690;-72
2021/10/27 08:43:27;;;;;;;21.10;18.87;;;;;;;-138.14;100.00;63448.66;4978073;28;20190;-71
2021/10/27 08:45:53;;;;;;;21.40;19.10;;;;;;;-138.14;100.00;63448.66;4960993;28;20222;-71
2021/10/27 08:48:19;;;;;;;20.47;17.97;;;;;;;-138.14;100.00;63448.66;4971386;28;20169;-71
2021/10/27 08:50:45;;;;;;;20.80;18.27;;;;;;;-138.14;100.00;63448.66;4996471;28;20786;-71
2021/10/27 08:53:14;;;;;;;20.93;18.80;;;;;;;-138.14;100.00;63448.66;4997566;28;20268;-72
2021/10/27 08:55:45;;;;;;;20.43;18.33;;;;;;;-138.14;100.00;63448.66;4996909;28;20215;-71
2021/10/27 08:58:15;;;;;;;20.93;18.73;;;;;;;-138.14;100.00;63448.66;4997220;28;20181;-72
2021/10/27 09:03:58;;;;;;;20.27;18.07;;;;;;;-138.14;100.00;63448.66;5000004;28;20181;-71
2021/10/27 09:34:41;;;;;;;19.87;17.77;;;;;;;-138.14;100.00;63448.66;5013668;28;20177;-70
2021/10/27 10:04:52;;;;;;;20.90;18.93;;;;;;;-138.14;100.00;63448.66;4998263;28;20184;-72
2021/10/27 10:07:26;;;;;;;21.30;19.30;;;;;;;-138.14;100.00;63448.66;4995645;28;20613;-71
2021/10/27 10:09:53;;;;;;;19.23;17.43;;;;;;;-138.14;100.00;63448.66;4980784;28;20235;-72
2021/10/27 10:12:30;;;;;;;19.20;17.40;;;;;;;-138.14;100.00;63448.66;4986419;28;20220;-72
2021/10/27 10:15:02;;;;;;;20.47;18.43;;;;;;;-138.14;100.00;63448.66;4980822;28;20268;-72
2021/10/27 10:17:33;;;;;;;20.70;18.70;;;;;;;-138.14;100.00;63448.66;5013640;28;20238;-73
2021/10/27 10:20:05;;;;;;;20.03;18.17;;;;;;;-138.14;100.00;63448.66;5012581;28;20213;-70
2021/10/27 10:22:41;;;;;;;20.63;18.43;;;;;;;-138.14;100.00;63448.66;4995866;28;20252;-71
2021/10/27 10:25:32;;;;;;;19.07;17.17;;;;;;;-138.14;100.00;63448.66;4987152;28;20231;-71
2021/10/27 10:28:19;;;;;;;18.63;16.87;;;;;;;-138.14;100.00;63448.66;5012078;28;20270;-72
2021/10/27 10:30:51;;;;;;;19.03;17.03;;;;;;;-138.14;100.00;63448.66;5011199;28;20232;-72
2021/10/27 10:33:17;;;;;;;18.20;16.43;;;;;;;-138.14;100.00;63448.66;5014610;28;20276;-71
2021/10/27 10:36:10;;;;;;;17.70;16.00;;;;;;;-138.14;100.00;63448.66;5010880;28;20220;-72
2021/10/27 10:59:24;;;;;;;14.97;13.53;;;;;;;-138.14;100.00;63448.66;4984340;28;20635;-71
2021/10/27 11:02:21;;;;;;;14.43;13.10;;;;;;;-138.14;100.00;63448.66;4994708;28;20324;-73
2021/10/27 11:22:37;;;;;;;13.67;9.70;;;;;;;-138.14;100.00;63448.66;4988187;28;20229;-71
2021/10/27 11:25:21;;;;;;;9.27;8.27;;;;;;;-138.14;100.00;63448.66;4976527;28;20192;-71
2021/10/27 11:42:16;;;;;;;7.47;6.33;;;;;;;-138.14;100.00;63448.66;5011470;28;20208;-71
2021/10/27 11:44:54;;;;;;;6.90;6.30;;;;;;;-138.14;100.00;63448.66;4977714;28;20193;-70
2021/10/27 11:47:39;;;;;;;8.77;5.97;;;;;;;-138.14;100.00;63448.66;4959755;28;20236;-71
2021/10/27 11:50:35;;;;;;;7.97;5.77;;;;;;;-138.14;100.00;63448.66;4974351;28;20197;-72
2021/10/27 11:53:03;;;;;;;8.40;5.97;;;;;;;-138.14;100.00;63448.66;4990194;28;20213;-70
2021/10/27 11:55:33;;;;;;;8.33;6.43;;;;;;;-138.14;100.00;63448.66;4974300;28;20213;-70
2021/10/27 11:57:59;;;;;;;6.03;5.10;;;;;;;-138.14;100.00;63448.66;4958550;28;20260;-71
2021/10/27 12:00:39;;;;;;;7.77;6.00;;;;;;;-138.14;100.00;63448.66;4974039;28;20730;-72
2021/10/27 12:03:13;;;;;;;9.23;6.13;;;;;;;-138.14;100.00;63448.66;4975488;28;20863;-71
2021/10/27 12:05:48;;;;;;;10.87;9.10;;;;;;;-138.14;100.00;63448.66;4973594;28;20248;-71
2021/10/27 12:13:38;;;;;;;8.03;5.13;;;;;;;-138.14;100.00;63448.66;5002341;28;20661;-70
2021/10/27 12:19:05;;;;;;;6.27;5.10;;;;;;;-138.14;100.00;63448.66;5011176;28;20191;-72
2021/10/27 12:21:30;;;;;;;11.02;8.93;;;;;;;-138.14;100.00;63448.66;4993838;28;20225;-71
2021/10/27 12:23:56;;;;;;;13.13;9.20;;;;;;;-138.14;100.00;63448.66;5010194;28;20268;-71
2021/10/27 12:26:24;;;;;;;5.30;4.80;;;;;;;-138.14;100.00;63448.66;4992552;28;20236;-70
2021/10/27 12:29:14;;;;;;;6.63;4.60;;;;;;;-138.14;100.00;63448.66;5011095;28;20181;-72
2021/10/27 12:31:40;;;;;;;6.30;4.80;;;;;;;-138.14;100.00;63448.66;5010097;28;20241;-71
2021/10/27 12:34:26;;;;;;;5.47;4.93;;;;;;;-138.14;100.00;63448.66;5011720;28;20181;-72
2021/10/27 12:36:56;;;;;;;6.78;6.13;;;;;;;-138.14;100.00;63448.66;4990284;28;20274;-71
2021/10/27 12:42:07;;;;;;;7.05;4.80;;;;;;;-138.14;100.00;63448.66;5001577;28;20217;-71
2021/10/27 12:44:46;;;;;;;5.87;4.63;;;;;;;-138.14;100.00;63448.66;4990115;28;20276;-71
2021/10/27 12:47:15;;;;;;;6.47;3.80;;;;;;;-138.14;100.00;63448.66;4958746;28;20776;-71
2021/10/27 12:49:43;;;;;;;6.32;4.78;;;;;;;-138.14;100.00;63448.66;4974735;28;20178;-71
2021/10/27 12:52:29;;;;;;;5.90;4.20;;;;;;;-138.14;100.00;63448.66;4974390;28;20771;-72
2021/10/27 12:55:30;;;;;;;7.47;4.07;;;;;;;-138.14;100.00;63448.66;4991521;28;20301;-71
2021/10/27 12:58:14;;;;;;;5.90;3.70;;;;;;;-138.14;100.00;63448.66;4942420;28;20221;-71
2021/10/27 13:01:15;;;;;;;5.63;3.53;;;;;;;-138.14;100.00;63448.66;4983471;28;20224;-72
2021/10/27 13:06:33;;;;;;;5.67;3.70;;;;;;;-138.14;100.00;63448.66;5000651;28;20263;-71
2021/10/27 13:09:14;;;;;;;5.73;3.77;;;;;;;-138.14;100.00;63448.66;4982476;28;20213;-73
2021/10/27 13:32:20;;;;;;;3.80;2.30;;;;;;;-138.14;100.00;63448.66;4996300;28;20239;-70
2021/10/27 13:34:47;;;;;;;3.10;1.87;;;;;;;-138.14;100.00;63448.66;4981192;28;20235;-71
2021/10/27 13:37:16;;;;;;;3.13;1.90;;;;;;;-138.14;100.00;63448.66;4980555;28;20248;-70
2021/10/27 13:39:43;;;;;;;4.50;1.85;;;;;;;-138.14;100.00;63448.66;4996386;28;20215;-71
2021/10/27 13:42:17;;;;;;;4.20;1.90;;;;;;;-138.14;100.00;63448.66;5004512;28;20228;-72
2021/10/27 13:48:11;;;;;;;5.40;2.67;;;;;;;-138.14;100.00;63448.66;5012923;28;20232;-69
2021/10/27 13:58:27;;;;;;;6.03;3.00;;;;;;;-138.14;100.00;63448.66;4999346;28;20193;-72
2021/10/27 14:09:26;;;;;;;6.75;2.88;;;;;;;-138.14;100.00;63448.66;4990863;28;20304;-70
2021/10/27 14:11:58;;;;;;;6.70;2.60;;;;;;;-138.14;100.00;63448.66;5003854;28;20336;-70
2021/10/27 14:20:12;;;;;;;5.03;3.30;;;;;;;-138.14;100.00;63448.66;4983708;28;20222;-70
2021/10/27 14:47:16;;;;;;;2.17;1.70;;;;;;;-138.14;100.00;63448.66;5018115;28;20349;-68
2021/10/27 15:20:23;;;;;;;3.83;2.87;;;;;;;-138.14;100.00;63448.66;5032940;28;20299;-67
2021/10/27 15:33:57;;;;;;;4.75;2.60;;;;;;;-138.14;100.00;63448.66;5016819;28;20196;-68
2021/10/27 15:52:13;;;;;;;4.93;3.03;;;;;;;-138.14;100.00;63448.66;4974792;28;20622;-69
2021/10/27 15:54:42;;;;;;;7.10;4.38;;;;;;;-138.14;100.00;63448.66;4992382;28;20547;-69